createdAt,value
2023-01-13T00:01:44.668Z,1.14
2023-01-13T00:05:06.743Z,1.20
2023-01-13T00:08:21.766Z,1.01
2023-01-13T00:11:43.652Z,1.07
2023-01-13T00:15:05.677Z,1.00
2023-01-13T00:18:27.683Z,1.05
2023-01-13T00:21:43.283Z,1.15
2023-01-13T00:25:07.671Z,1.12
2023-01-13T00:28:29.662Z,1.23
2023-01-13T00:31:52.690Z,1.03
2023-01-13T00:35:07.752Z,0.78
2023-01-13T00:38:29.640Z,0.95
2023-01-13T00:42:03.208Z,0.94
2023-01-13T00:45:24.653Z,0.93
2023-01-13T00:48:46.632Z,0.94
2023-01-13T00:52:01.907Z,0.80
2023-01-13T00:55:23.668Z,0.83
2023-01-13T00:58:45.673Z,0.94
2023-01-13T01:02:00.885Z,0.96
2023-01-13T01:05:22.636Z,0.90
2023-01-13T01:08:44.623Z,0.83
2023-01-13T01:12:07.639Z,0.89
2023-01-13T01:15:29.647Z,0.92
2023-01-13T01:18:45.920Z,0.89
2023-01-13T01:22:07.643Z,0.83
2023-01-13T01:25:29.632Z,0.78
2023-01-13T01:28:44.692Z,0.87
2023-01-13T01:31:59.650Z,0.88
2023-01-13T01:35:21.604Z,0.91
2023-01-13T01:38:36.891Z,0.86
2023-01-13T01:42:16.598Z,0.89
2023-01-13T01:45:33.777Z,0.83
2023-01-13T01:48:55.592Z,0.89
2023-01-13T01:52:22.586Z,0.74
2023-01-13T01:55:44.623Z,0.73
2023-01-13T01:59:07.594Z,0.68
2023-01-13T02:02:22.923Z,0.79
2023-01-13T02:05:45.636Z,0.82
2023-01-13T02:09:07.612Z,0.63
2023-01-13T02:12:34.731Z,0.63
2023-01-13T02:16:14.660Z,0.61
2023-01-13T02:19:56.608Z,0.66
2023-01-13T02:23:40.798Z,0.80
2023-01-13T02:27:21.608Z,0.91
2023-01-13T02:31:07.585Z,0.97
2023-01-13T02:34:27.693Z,0.92
2023-01-13T02:37:50.610Z,0.87
2023-01-13T02:41:44.558Z,0.81
2023-01-13T02:45:13.577Z,0.98
2023-01-13T02:48:36.584Z,0.97
2023-01-13T02:51:59.584Z,0.92
2023-01-13T02:55:24.606Z,0.84
2023-01-13T02:58:48.591Z,0.89
2023-01-13T03:02:10.739Z,1.01
2023-01-13T03:05:33.588Z,1.06
2023-01-13T03:08:54.680Z,0.98
2023-01-13T03:12:27.555Z,0.98
2023-01-13T03:16:07.566Z,0.81
2023-01-13T03:19:31.609Z,0.94
2023-01-13T03:22:52.348Z,0.83
2023-01-13T03:26:22.620Z,1.01
2023-01-13T03:29:44.545Z,1.05
2023-01-13T03:33:03.445Z,0.88
2023-01-13T03:36:28.623Z,0.87
2023-01-13T03:39:53.528Z,1.01
2023-01-13T03:43:40.542Z,0.92
2023-01-13T03:47:02.606Z,1.04
2023-01-13T03:50:46.606Z,0.94
2023-01-13T03:54:12.524Z,1.04
2023-01-13T03:57:36.562Z,0.99
2023-01-13T04:01:24.695Z,0.98
2023-01-13T04:04:49.541Z,0.94
2023-01-13T04:08:23.561Z,1.00
2023-01-13T04:11:51.545Z,0.96
2023-01-13T04:15:07.044Z,1.03
2023-01-13T04:18:24.539Z,0.93
2023-01-13T04:21:39.621Z,0.93
2023-01-13T04:25:01.579Z,1.11
2023-01-13T04:28:24.517Z,1.02
2023-01-13T04:31:46.550Z,0.99
2023-01-13T04:35:01.634Z,1.11
2023-01-13T04:38:24.549Z,1.06
2023-01-13T04:42:04.530Z,0.97
2023-01-13T04:45:26.537Z,0.77
2023-01-13T04:48:41.601Z,0.89
2023-01-13T04:52:03.494Z,1.05
2023-01-13T04:55:26.568Z,1.07
2023-01-13T04:58:41.778Z,0.88
2023-01-13T05:02:03.530Z,0.82
2023-01-13T05:05:25.509Z,1.04
2023-01-13T05:08:40.653Z,0.96
2023-01-13T05:12:20.573Z,1.00
2023-01-13T05:16:00.595Z,0.91
2023-01-13T05:19:15.723Z,0.70
2023-01-13T05:22:55.486Z,0.86
2023-01-13T05:26:17.476Z,0.62
2023-01-13T05:29:39.474Z,0.24
2023-01-13T05:32:54.711Z,0.65
2023-01-13T05:36:16.445Z,0.74
2023-01-13T05:39:58.481Z,0.51
2023-01-13T05:43:31.465Z,0.66
2023-01-13T05:46:53.540Z,0.66
2023-01-13T05:50:08.620Z,0.52
2023-01-13T05:53:30.492Z,0.72
2023-01-13T05:56:52.463Z,0.50
2023-01-13T06:00:15.529Z,0.69
2023-01-13T06:03:37.494Z,0.53
2023-01-13T06:06:59.520Z,0.48
2023-01-13T06:10:14.604Z,0.73
2023-01-13T06:13:37.492Z,0.77
2023-01-13T06:16:59.459Z,0.64
2023-01-13T06:20:15.333Z,0.54
2023-01-13T06:23:41.456Z,0.58
2023-01-13T06:27:03.464Z,0.68
2023-01-13T06:30:25.477Z,0.69
2023-01-13T06:33:52.551Z,0.64
2023-01-13T06:37:16.472Z,0.66
2023-01-13T06:40:38.427Z,0.63
2023-01-13T06:44:00.469Z,0.77
2023-01-13T06:47:22.521Z,0.65
2023-01-13T06:50:44.454Z,0.60
2023-01-13T06:54:06.466Z,0.77
2023-01-13T06:57:21.576Z,0.69
2023-01-13T07:00:43.466Z,0.58
2023-01-13T07:04:05.411Z,0.76
2023-01-13T07:07:27.466Z,0.66
2023-01-13T07:10:42.626Z,0.88
2023-01-13T07:14:22.390Z,1.02
2023-01-13T07:17:44.464Z,1.09
2023-01-13T07:21:10.444Z,1.14
2023-01-13T07:24:32.438Z,0.82
2023-01-13T07:27:54.469Z,1.17
2023-01-13T07:31:16.462Z,1.11
2023-01-13T07:34:31.400Z,1.12
2023-01-13T07:37:53.474Z,1.19
2023-01-13T07:41:27.115Z,1.28
2023-01-13T07:44:48.436Z,0.99
2023-01-13T07:48:10.542Z,1.26
2023-01-13T07:51:25.697Z,1.39
2023-01-13T07:54:47.439Z,1.34
2023-01-13T07:58:02.578Z,1.14
2023-01-13T08:01:25.501Z,1.42
2023-01-13T08:04:40.680Z,1.43
2023-01-13T08:08:02.420Z,1.48
2023-01-13T08:11:24.424Z,1.40
2023-01-13T08:14:46.428Z,1.19
2023-01-13T08:18:08.410Z,1.39
2023-01-13T08:21:30.375Z,1.51
2023-01-13T08:24:52.343Z,1.47
2023-01-13T08:28:14.452Z,1.67
2023-01-13T08:31:29.647Z,1.63
2023-01-13T08:34:51.432Z,1.87
2023-01-13T08:38:08.044Z,1.92
2023-01-13T08:41:49.402Z,2.21
2023-01-13T08:45:05.262Z,2.36
2023-01-13T08:48:28.587Z,2.20
2023-01-13T08:51:52.374Z,2.14
2023-01-13T08:55:07.455Z,2.33
2023-01-13T08:58:29.374Z,2.45
2023-01-13T09:01:44.592Z,2.48
2023-01-13T09:05:09.376Z,2.46
2023-01-13T09:08:31.414Z,2.37
2023-01-13T09:12:06.891Z,2.52
2023-01-13T09:15:28.424Z,2.41
2023-01-13T09:18:50.358Z,2.58
2023-01-13T09:22:12.380Z,2.62
2023-01-13T09:25:34.350Z,2.68
2023-01-13T09:28:56.347Z,2.75
2023-01-13T09:32:18.359Z,2.66
2023-01-13T09:35:40.385Z,2.47
2023-01-13T09:38:55.570Z,2.54
2023-01-13T09:42:39.323Z,2.37
2023-01-13T09:46:10.438Z,2.45
2023-01-13T09:49:32.475Z,2.78
2023-01-13T09:52:54.372Z,2.69
2023-01-13T09:56:09.480Z,2.79
2023-01-13T09:59:33.405Z,2.88
2023-01-13T10:03:03.472Z,2.96
2023-01-13T10:06:35.366Z,2.84
2023-01-13T10:10:03.282Z,2.87
2023-01-13T10:13:22.357Z,3.18
2023-01-13T10:16:51.314Z,2.70
2023-01-13T10:20:15.922Z,2.79
2023-01-13T10:24:06.350Z,2.96
2023-01-13T10:27:37.325Z,2.99
2023-01-13T10:30:53.581Z,2.92
2023-01-13T10:34:15.343Z,2.63
2023-01-13T10:37:31.701Z,2.85
2023-01-13T10:41:04.304Z,2.77
2023-01-13T10:44:30.321Z,2.65
2023-01-13T10:48:09.329Z,2.62
2023-01-13T10:51:36.337Z,2.72
2023-01-13T10:55:01.300Z,2.86
2023-01-13T10:58:27.829Z,2.85
2023-01-13T11:01:51.965Z,2.92
2023-01-13T11:05:16.278Z,2.84
2023-01-13T11:08:41.153Z,2.66
2023-01-13T11:12:03.283Z,2.96
2023-01-13T11:15:28.328Z,2.88
2023-01-13T11:19:02.113Z,2.98
2023-01-13T11:22:27.333Z,2.84
2023-01-13T11:25:54.308Z,2.80
2023-01-13T11:29:15.040Z,2.79
2023-01-13T11:32:37.333Z,2.93
2023-01-13T11:36:01.304Z,2.80
2023-01-13T11:39:31.250Z,2.73
2023-01-13T11:42:56.288Z,2.90
2023-01-13T11:46:12.333Z,2.92
2023-01-13T11:49:36.320Z,2.98
2023-01-13T11:53:10.549Z,3.08
2023-01-13T11:56:34.257Z,3.18
2023-01-13T11:59:59.292Z,2.93
2023-01-13T12:03:26.841Z,3.25
2023-01-13T12:06:50.225Z,2.79
2023-01-13T12:10:32.292Z,2.88
2023-01-13T12:13:47.342Z,3.02
2023-01-13T12:17:11.273Z,3.18
2023-01-13T12:20:36.274Z,3.18
2023-01-13T12:23:58.232Z,3.20
2023-01-13T12:27:38.210Z,3.39
2023-01-13T12:30:59.157Z,3.21
2023-01-13T12:34:27.239Z,3.07
2023-01-13T12:37:49.193Z,3.19
2023-01-13T12:41:17.250Z,3.11
2023-01-13T12:44:39.243Z,3.16
2023-01-13T12:47:54.395Z,3.15
2023-01-13T12:51:27.266Z,3.13
2023-01-13T12:54:48.341Z,3.05
2023-01-13T12:58:10.275Z,3.22
2023-01-13T13:01:32.395Z,2.85
2023-01-13T13:04:51.974Z,3.06
2023-01-13T13:08:24.223Z,2.95
2023-01-13T13:12:07.235Z,3.09
2023-01-13T13:15:31.355Z,3.31
2023-01-13T13:18:53.208Z,2.93
2023-01-13T13:22:21.269Z,2.86
2023-01-13T13:25:43.227Z,3.02
2023-01-13T13:29:16.310Z,2.99
2023-01-13T13:32:47.207Z,3.09
2023-01-13T13:36:09.326Z,3.02
2023-01-13T13:39:52.234Z,2.83
2023-01-13T13:43:25.717Z,2.87
2023-01-13T13:46:54.228Z,3.06
2023-01-13T13:50:20.246Z,3.09
2023-01-13T13:53:40.645Z,3.19
2023-01-13T13:57:03.195Z,2.91
2023-01-13T14:00:30.157Z,3.14
2023-01-13T14:03:53.188Z,3.31
2023-01-13T14:07:18.507Z,3.13
2023-01-13T14:10:50.193Z,3.12
2023-01-13T14:14:13.176Z,3.10
2023-01-13T14:17:33.235Z,2.71
2023-01-13T14:21:04.176Z,2.91
2023-01-13T14:24:22.580Z,3.03
2023-01-13T14:27:49.109Z,3.18
2023-01-13T14:31:11.153Z,3.10
2023-01-13T14:34:32.385Z,3.21
2023-01-13T14:37:57.063Z,3.22
2023-01-13T14:41:17.733Z,3.25
2023-01-13T14:44:39.123Z,3.20
2023-01-13T14:47:54.385Z,2.66
2023-01-13T14:51:17.095Z,2.90
2023-01-13T14:54:50.101Z,3.06
2023-01-13T14:58:50.148Z,2.91
2023-01-13T15:02:24.486Z,3.11
2023-01-13T15:05:49.109Z,2.98
2023-01-13T15:09:18.048Z,2.93
2023-01-13T15:12:49.071Z,3.08
2023-01-13T15:16:21.151Z,2.91
2023-01-13T15:19:36.164Z,2.85
2023-01-13T15:22:59.081Z,2.93
2023-01-13T15:26:30.050Z,3.07
2023-01-13T15:29:52.090Z,3.15
2023-01-13T15:33:14.112Z,3.15
2023-01-13T15:36:37.028Z,2.92
2023-01-13T15:39:52.104Z,2.84
2023-01-13T15:43:37.087Z,2.90
2023-01-13T15:46:59.061Z,3.06
2023-01-13T15:50:15.239Z,3.07
2023-01-13T15:53:37.046Z,3.12
2023-01-13T15:56:52.836Z,3.18
2023-01-13T16:00:15.078Z,2.90
2023-01-13T16:03:37.030Z,2.70
2023-01-13T16:06:59.044Z,2.99
2023-01-13T16:10:26.049Z,3.00
2023-01-13T16:13:48.044Z,2.94
2023-01-13T16:17:03.990Z,2.69
2023-01-13T16:20:27.015Z,2.66
2023-01-13T16:23:49.079Z,2.62
2023-01-13T16:27:04.153Z,2.72
2023-01-13T16:30:36.042Z,2.85
2023-01-13T16:33:51.188Z,2.87
2023-01-13T16:37:17.072Z,2.62
2023-01-13T16:40:39.193Z,2.81
2023-01-13T16:44:01.062Z,2.77
2023-01-13T16:47:31.115Z,2.76
2023-01-13T16:50:46.693Z,2.68
2023-01-13T16:54:08.054Z,2.72
2023-01-13T16:57:23.334Z,2.75
2023-01-13T17:00:45.097Z,2.82
2023-01-13T17:04:07.084Z,2.57
2023-01-13T17:07:23.179Z,2.54
2023-01-13T17:10:45.103Z,2.56
2023-01-13T17:14:18.231Z,2.72
2023-01-13T17:17:34.267Z,2.67
2023-01-13T17:20:56.054Z,2.62
2023-01-13T17:24:19.097Z,2.49
2023-01-13T17:27:41.074Z,2.54
2023-01-13T17:30:56.284Z,2.69
2023-01-13T17:34:18.134Z,2.60
2023-01-13T17:37:40.060Z,2.54
2023-01-13T17:41:02.091Z,2.45
2023-01-13T17:44:18.232Z,2.59
2023-01-13T17:47:40.090Z,2.55
2023-01-13T17:51:02.047Z,2.47
2023-01-13T17:54:17.162Z,2.37
2023-01-13T17:57:39.036Z,2.59
2023-01-13T18:00:54.183Z,2.47
2023-01-13T18:04:23.059Z,2.61
2023-01-13T18:07:45.094Z,2.52
2023-01-13T18:11:00.788Z,2.67
2023-01-13T18:14:23.025Z,2.62
2023-01-13T18:17:38.233Z,2.70
2023-01-13T18:21:18.016Z,2.71
2023-01-13T18:25:05.004Z,2.64
2023-01-13T18:28:20.257Z,2.61
2023-01-13T18:31:42.007Z,2.54
2023-01-13T18:35:06.532Z,2.54
2023-01-13T18:38:26.358Z,2.48
2023-01-13T18:42:06.013Z,2.50
2023-01-13T18:45:28.031Z,2.38
2023-01-13T18:48:49.994Z,2.46
2023-01-13T18:52:12.071Z,2.44
2023-01-13T18:55:34.998Z,2.30
2023-01-13T18:58:52.112Z,2.42
2023-01-13T19:02:20.119Z,2.51
2023-01-13T19:05:35.214Z,2.57
2023-01-13T19:09:00.016Z,2.33
2023-01-13T19:12:23.027Z,2.33
2023-01-13T19:15:45.031Z,2.55
2023-01-13T19:19:00.091Z,2.59
2023-01-13T19:22:24.038Z,2.64
2023-01-13T19:25:39.176Z,2.54
2023-01-13T19:29:01.027Z,2.44
2023-01-13T19:32:16.203Z,2.14
2023-01-13T19:35:37.975Z,2.45
2023-01-13T19:39:00.010Z,2.34
2023-01-13T19:42:33.904Z,1.87
2023-01-13T19:45:56.050Z,2.27
2023-01-13T19:49:17.957Z,2.36
2023-01-13T19:52:40.005Z,2.30
2023-01-13T19:55:55.231Z,2.41
2023-01-13T19:59:17.000Z,1.98
2023-01-13T20:02:32.371Z,2.33
2023-01-13T20:05:53.982Z,2.26
2023-01-13T20:09:09.200Z,2.26
2023-01-13T20:12:31.029Z,2.40
2023-01-13T20:15:52.991Z,2.41
2023-01-13T20:19:14.929Z,2.33
2023-01-13T20:22:36.909Z,2.02
2023-01-13T20:25:58.969Z,2.14
2023-01-13T20:29:20.954Z,2.30
2023-01-13T20:32:42.979Z,2.32
2023-01-13T20:36:04.945Z,2.50
2023-01-13T20:39:21.086Z,2.40
2023-01-13T20:42:51.974Z,2.36
2023-01-13T20:46:16.909Z,2.27
2023-01-13T20:49:38.937Z,1.88
2023-01-13T20:53:00.964Z,2.11
2023-01-13T20:56:16.243Z,2.22
2023-01-13T20:59:37.927Z,2.32
2023-01-13T21:02:59.949Z,2.18
2023-01-13T21:06:26.971Z,2.34
2023-01-13T21:09:42.153Z,2.47
2023-01-13T21:13:21.932Z,2.47
2023-01-13T21:16:37.165Z,2.08
2023-01-13T21:19:51.883Z,1.93
2023-01-13T21:23:14.946Z,2.15
2023-01-13T21:26:30.664Z,2.27
2023-01-13T21:29:51.946Z,2.10
2023-01-13T21:33:13.933Z,1.97
2023-01-13T21:36:29.074Z,2.09
2023-01-13T21:39:50.933Z,2.26
2023-01-13T21:43:24.749Z,2.19
2023-01-13T21:47:04.856Z,2.40
2023-01-13T21:50:27.868Z,2.13
2023-01-13T21:53:49.901Z,2.07
2023-01-13T21:57:05.052Z,2.24
2023-01-13T22:00:27.886Z,2.27
2023-01-13T22:04:07.904Z,2.27
2023-01-13T22:07:29.901Z,2.28
2023-01-13T22:11:03.900Z,2.43
2023-01-13T22:14:19.354Z,2.35
2023-01-13T22:17:41.940Z,2.34
2023-01-13T22:21:06.880Z,2.37
2023-01-13T22:24:28.926Z,2.46
2023-01-13T22:27:45.005Z,2.36
2023-01-13T22:31:06.847Z,2.27
2023-01-13T22:34:28.864Z,2.28
2023-01-13T22:37:50.897Z,2.41
2023-01-13T22:41:13.894Z,2.32
2023-01-13T22:44:35.915Z,2.23
2023-01-13T22:47:57.875Z,2.44
2023-01-13T22:51:12.958Z,2.30
2023-01-13T22:54:34.928Z,2.29
2023-01-13T22:57:49.930Z,2.28
2023-01-13T23:01:15.961Z,2.16
2023-01-13T23:04:37.913Z,2.42
2023-01-13T23:07:59.901Z,2.34
2023-01-13T23:11:27.858Z,2.23
2023-01-13T23:14:49.911Z,2.29
2023-01-13T23:18:05.036Z,2.23
2023-01-13T23:21:30.837Z,2.16
2023-01-13T23:24:52.858Z,2.32
2023-01-13T23:28:16.847Z,2.28
2023-01-13T23:31:38.859Z,2.15
2023-01-13T23:35:00.860Z,2.13
2023-01-13T23:38:22.805Z,2.08
2023-01-13T23:41:44.870Z,2.06
2023-01-13T23:45:06.832Z,1.79
2023-01-13T23:48:22.091Z,2.06
2023-01-13T23:51:43.818Z,2.12
2023-01-13T23:55:05.805Z,2.15
2023-01-13T23:58:27.827Z,1.93
